Time;durP1;ratioP1;P1;durP2;ratioP2;P2;SDS_P1;SDS_P2;PMS_P1;PMS_P2;Temp;Humidity;BMP_temperature;BMP_pressure;BME280_temperature;BME280_humidity;BME280_pressure;Samples;Min_cycle;Max_cycle;Signal;HPM_P1;HPM_P2
2021/05/06 00:02:36;;;;;;;6.77;1.80;;;3.50;99.90;;;;;;5116550;28;20448;-65
2021/05/06 00:05:24;;;;;;;14.10;13.40;;;3.60;99.90;;;;;;5101145;28;20587;-65
2021/05/06 00:08:12;;;;;;;136.53;82.47;;;3.70;99.90;;;;;;5121191;28;20440;-64
2021/05/06 00:30:19;;;;;;;33.13;31.00;;;3.90;99.90;;;;;;5097533;28;20740;-65
2021/05/06 00:32:54;;;;;;;124.47;101.93;;;4.10;99.90;;;;;;5116718;28;20492;-66
2021/05/06 00:35:22;;;;;;;64.67;60.03;;;4.30;99.90;;;;;;5099080;28;20424;-65
2021/05/06 00:37:57;;;;;;;90.20;82.60;;;4.40;99.90;;;;;;5097481;28;20467;-65
2021/05/06 00:40:33;;;;;;;36.70;34.63;;;4.50;99.90;;;;;;5116209;28;20431;-65
2021/05/06 00:46:29;;;;;;;21.67;20.63;;;4.10;99.90;;;;;;5118678;28;20528;-64
2021/05/06 00:57:28;;;;;;;9.83;9.23;;;4.30;99.90;;;;;;5116099;28;20520;-64
2021/05/06 01:00:36;;;;;;;36.27;33.87;;;4.30;99.90;;;;;;5083634;28;20435;-66
2021/05/06 01:03:13;;;;;;;14.33;13.03;;;4.40;99.90;;;;;;5100419;28;20431;-65
2021/05/06 01:05:45;;;;;;;8.43;2.50;;;4.40;99.90;;;;;;5082142;28;20428;-65
2021/05/06 01:08:17;;;;;;;0.70;0.70;;;4.40;99.90;;;;;;5083099;28;20434;-64
2021/05/06 01:11:01;;;;;;;2.13;1.90;;;4.30;99.90;;;;;;5122104;28;20460;-65
2021/05/06 01:13:32;;;;;;;2.87;1.13;;;4.40;99.90;;;;;;5105763;28;20467;-64
2021/05/06 01:16:00;;;;;;;3.43;3.03;;;4.40;99.90;;;;;;5125254;28;20439;-63
2021/05/06 01:18:29;;;;;;;2.53;2.33;;;4.40;99.90;;;;;;5105536;28;20469;-64
2021/05/06 01:21:01;;;;;;;0.97;0.97;;;4.40;99.90;;;;;;5124028;28;20919;-65
2021/05/06 01:23:30;;;;;;;1.77;1.67;;;4.40;99.90;;;;;;5123540;28;20432;-64
2021/05/06 01:26:01;;;;;;;1.57;1.33;;;4.40;99.90;;;;;;5123766;28;20450;-64
2021/05/06 01:28:32;;;;;;;41.67;38.73;;;4.50;99.90;;;;;;5123274;28;20566;-64
2021/05/06 01:31:03;;;;;;;155.93;90.40;;;4.40;99.90;;;;;;5123944;28;20478;-63
2021/05/06 01:33:36;;;;;;;144.60;90.77;;;4.50;99.90;;;;;;5104268;28;20435;-64
2021/05/06 01:36:08;;;;;;;124.17;84.67;;;4.40;99.90;;;;;;5122428;28;20608;-64
2021/05/06 01:38:57;;;;;;;156.63;91.03;;;4.40;99.90;;;;;;5110494;28;20466;-63
2021/05/06 01:44:11;;;;;;;262.70;249.10;;;4.60;99.90;;;;;;5122005;28;20443;-64
2021/05/06 01:47:03;;;;;;;30.33;29.25;;;4.70;99.90;;;;;;5084389;28;20448;-64
2021/05/06 01:50:04;;;;;;;4.80;2.50;;;4.70;99.90;;;;;;5103381;28;20408;-64
2021/05/06 01:58:29;;;;;;;4.53;2.30;;;4.80;99.90;;;;;;5120267;28;20879;-64
2021/05/06 02:01:00;;;;;;;3.35;1.80;;;4.80;99.90;;;;;;5100733;28;20400;-65
2021/05/06 02:03:53;;;;;;;3.10;1.80;;;4.90;99.90;;;;;;5119039;28;20451;-65
2021/05/06 02:06:47;;;;;;;2.00;1.80;;;4.90;99.90;;;;;;5100161;28;20396;-64
2021/05/06 02:09:31;;;;;;;4.50;2.42;;;4.90;99.90;;;;;;5102366;28;20444;-66
2021/05/06 02:12:00;;;;;;;4.80;2.60;;;4.90;99.90;;;;;;5100244;28;20456;-63
2021/05/06 02:14:37;;;;;;;21.40;20.70;;;4.90;99.90;;;;;;5116645;28;20415;-65
2021/05/06 02:17:04;;;;;;;2.90;2.70;;;4.80;99.90;;;;;;5117149;28;20737;-63
2021/05/06 02:19:36;;;;;;;3.70;2.50;;;4.90;99.90;;;;;;5099445;28;20483;-63
2021/05/06 02:22:05;;;;;;;3.15;2.15;;;4.80;99.90;;;;;;5116480;28;20409;-66
2021/05/06 02:24:34;;;;;;;4.88;2.45;;;4.90;99.90;;;;;;5100118;28;20400;-63
2021/05/06 02:27:02;;;;;;;2.10;1.90;;;4.90;99.90;;;;;;5100690;28;20768;-64
2021/05/06 02:29:30;;;;;;;2.40;2.20;;;4.90;99.90;;;;;;5119614;28;20416;-66
2021/05/06 02:31:58;;;;;;;2.10;1.90;;;5.10;99.90;;;;;;5099516;28;20408;-66
2021/05/06 02:34:26;;;;;;;2.20;1.80;;;5.10;99.90;;;;;;5119104;28;20885;-64
2021/05/06 02:36:53;;;;;;;2.00;1.75;;;5.10;99.90;;;;;;5098657;28;20927;-65
2021/05/06 02:39:21;;;;;;;1.70;1.60;;;5.10;99.90;;;;;;5116733;28;20579;-63
2021/05/06 02:41:52;;;;;;;2.72;1.88;;;5.10;99.90;;;;;;5098996;28;20400;-63
2021/05/06 02:44:20;;;;;;;3.00;1.60;;;5.10;99.90;;;;;;5115881;28;20415;-63
2021/05/06 02:46:47;;;;;;;3.60;1.80;;;5.10;99.90;;;;;;5116537;28;20452;-66
2021/05/06 02:49:15;;;;;;;2.47;1.70;;;5.10;99.90;;;;;;5099062;28;20881;-64
2021/05/06 02:51:47;;;;;;;3.10;1.60;;;5.00;99.90;;;;;;5117370;28;20884;-64
2021/05/06 02:54:14;;;;;;;2.40;2.20;;;5.10;99.90;;;;;;5117047;28;20418;-64
2021/05/06 03:05:04;;;;;;;2.03;1.50;;;4.80;99.90;;;;;;5117960;28;20411;-65
2021/05/06 03:07:33;;;;;;;2.03;1.60;;;4.90;99.90;;;;;;5117786;28;20918;-65
2021/05/06 03:10:07;;;;;;;4.70;2.00;;;5.00;99.90;;;;;;5117600;28;20890;-64
2021/05/06 03:12:55;;;;;;;2.70;1.90;;;4.90;99.90;;;;;;5119197;28;20803;-65
2021/05/06 03:21:24;;;;;;;2.10;1.90;;;5.00;99.90;;;;;;5118083;28;20895;-68
2021/05/06 03:23:52;;;;;;;3.58;2.25;;;4.90;99.90;;;;;;5118156;28;20885;-65
2021/05/06 03:26:20;;;;;;;4.35;2.28;;;5.00;99.90;;;;;;5118011;28;20419;-65
2021/05/06 03:32:03;;;;;;;2.40;1.60;;;5.10;99.90;;;;;;5117672;28;20436;-64
2021/05/06 03:34:43;;;;;;;8.80;1.90;;;5.10;99.90;;;;;;5098461;28;20418;-65
2021/05/06 03:43:06;;;;;;;2.30;1.90;;;5.00;99.90;;;;;;5115049;28;20856;-64
2021/05/06 03:49:20;;;;;;;3.80;1.87;;;5.00;99.90;;;;;;5095025;28;20418;-65
2021/05/06 04:17:13;;;;;;;2.03;1.50;;;5.20;99.90;;;;;;5100346;28;20862;-64
2021/05/06 04:25:39;;;;;;;4.03;1.70;;;5.40;99.90;;;;;;5115002;28;20431;-65
2021/05/06 04:37:15;;;;;;;5.15;2.70;;;5.60;99.90;;;;;;5096246;28;20408;-65
2021/05/06 04:39:51;;;;;;;1.80;1.55;;;5.50;99.90;;;;;;5095850;28;20400;-64
2021/05/06 04:45:50;;;;;;;2.10;1.60;;;5.50;99.90;;;;;;5114172;28;20402;-64
2021/05/06 04:54:01;;;;;;;4.53;2.17;;;5.70;99.90;;;;;;5114965;28;20895;-63
2021/05/06 05:04:53;;;;;;;3.03;2.30;;;6.30;99.90;;;;;;5113793;28;20473;-64
2021/05/06 05:07:23;;;;;;;2.30;2.00;;;6.70;99.90;;;;;;5096149;28;20401;-66
2021/05/06 05:10:09;;;;;;;3.88;2.50;;;6.80;99.90;;;;;;5095186;28;20756;-66
2021/05/06 05:12:56;;;;;;;4.00;2.53;;;7.10;99.90;;;;;;5115339;28;20408;-64
2021/05/06 05:18:18;;;;;;;2.47;1.83;;;7.20;99.90;;;;;;5095962;28;20424;-64
2021/05/06 05:21:02;;;;;;;2.20;1.70;;;7.20;99.90;;;;;;5080141;28;20405;-64
2021/05/06 05:23:35;;;;;;;4.53;2.00;;;7.20;99.90;;;;;;5115588;28;20435;-64
2021/05/06 05:26:05;;;;;;;3.80;2.50;;;7.00;99.90;;;;;;5116204;28;20408;-67
2021/05/06 05:28:34;;;;;;;4.13;2.27;;;7.00;99.90;;;;;;5115228;28;20490;-64
2021/05/06 05:31:01;;;;;;;2.00;1.80;;;7.40;99.90;;;;;;5115233;28;20404;-64
2021/05/06 05:33:33;;;;;;;3.50;1.90;;;7.20;99.90;;;;;;5115996;28;20508;-63
2021/05/06 05:36:09;;;;;;;3.38;1.73;;;7.60;99.90;;;;;;5080947;28;20491;-65
2021/05/06 05:38:47;;;;;;;1.65;1.33;;;7.80;99.90;;;;;;5095611;28;20897;-63
2021/05/06 05:41:47;;;;;;;3.25;1.80;;;8.20;99.90;;;;;;5112730;28;20400;-64
2021/05/06 05:55:32;;;;;;;4.13;1.70;;;7.90;99.90;;;;;;5094444;28;20407;-64
2021/05/06 05:58:25;;;;;;;3.80;1.80;;;8.20;99.90;;;;;;5100881;28;20404;-64
2021/05/06 06:00:54;;;;;;;1.85;1.40;;;8.40;99.90;;;;;;5119386;28;20415;-66
2021/05/06 06:03:21;;;;;;;3.22;1.85;;;8.30;99.90;;;;;;5118884;28;20412;-63
2021/05/06 06:05:52;;;;;;;2.33;1.60;;;8.70;99.90;;;;;;5100981;28;20411;-66
2021/05/06 06:08:24;;;;;;;5.32;2.33;;;9.10;99.90;;;;;;5129723;28;20412;-65
2021/05/06 06:10:51;;;;;;;3.30;1.50;;;9.20;99.90;;;;;;5109771;28;20924;-65
2021/05/06 06:13:19;;;;;;;3.60;1.60;;;9.00;99.90;;;;;;5118062;28;20479;-64
2021/05/06 06:15:53;;;;;;;2.20;1.63;;;8.80;99.90;;;;;;5118011;28;20504;-64
2021/05/06 06:18:26;;;;;;;2.30;1.90;;;8.50;99.90;;;;;;5117852;28;20594;-63
2021/05/06 06:21:01;;;;;;;1.63;1.20;;;8.30;99.90;;;;;;5118262;28;20407;-63
2021/05/06 06:23:28;;;;;;;2.00;1.70;;;8.30;99.90;;;;;;5117876;28;20416;-63
2021/05/06 06:25:57;;;;;;;1.88;1.40;;;8.30;99.90;;;;;;5082180;28;20393;-63
2021/05/06 06:28:26;;;;;;;2.70;1.40;;;8.30;99.90;;;;;;5117489;28;20481;-66
2021/05/06 06:30:54;;;;;;;4.10;1.90;;;8.30;99.90;;;;;;5117360;28;20461;-64
2021/05/06 06:33:23;;;;;;;3.92;1.88;;;8.60;99.90;;;;;;5116925;28;20488;-65
2021/05/06 06:35:51;;;;;;;2.72;1.70;;;8.70;99.90;;;;;;5117414;28;20552;-64
2021/05/06 06:38:19;;;;;;;3.05;1.70;;;9.10;99.90;;;;;;5116838;28;20452;-65
2021/05/06 06:40:46;;;;;;;3.07;1.90;;;9.50;99.90;;;;;;5117133;28;20457;-65
2021/05/06 06:43:14;;;;;;;2.17;1.90;;;9.40;99.90;;;;;;5117509;28;20408;-64
2021/05/06 06:45:42;;;;;;;2.27;1.80;;;9.60;99.90;;;;;;5098035;28;20515;-63
2021/05/06 06:48:12;;;;;;;2.40;1.50;;;9.70;99.60;;;;;;5115758;28;20408;-64
2021/05/06 06:50:42;;;;;;;3.60;1.70;;;9.60;99.80;;;;;;5116735;28;20412;-64
2021/05/06 06:53:12;;;;;;;4.90;1.70;;;9.50;99.90;;;;;;5097821;28;20404;-64
2021/05/06 06:55:40;;;;;;;2.00;1.47;;;9.80;99.50;;;;;;5114883;28;20496;-64
2021/05/06 06:58:27;;;;;;;4.55;1.58;;;10.20;98.40;;;;;;5079224;28;20407;-65
2021/05/06 07:00:56;;;;;;;3.30;1.80;;;10.80;96.50;;;;;;5114679;28;20400;-65
2021/05/06 07:03:24;;;;;;;2.10;1.70;;;11.80;95.40;;;;;;5114490;28;20469;-67
2021/05/06 07:05:53;;;;;;;3.45;1.85;;;11.20;94.40;;;;;;5114612;28;20415;-64
2021/05/06 07:08:23;;;;;;;1.80;1.60;;;10.60;95.90;;;;;;5114282;28;20483;-64
2021/05/06 07:10:54;;;;;;;2.65;2.15;;;10.80;95.10;;;;;;5114687;28;20404;-67
2021/05/06 07:13:22;;;;;;;2.60;1.52;;;10.40;95.80;;;;;;5114603;28;20409;-65
2021/05/06 07:15:51;;;;;;;3.20;1.90;;;10.20;96.30;;;;;;5114477;28;20914;-64
2021/05/06 07:18:19;;;;;;;338.80;301.80;;;10.20;96.30;;;;;;5115443;28;20202;-64
2021/05/06 07:20:48;;;;;;;586.57;545.73;;;10.10;95.90;;;;;;5114393;28;20806;-64
2021/05/06 07:23:18;;;;;;;639.30;597.50;;;10.10;96.20;;;;;;5096114;28;20404;-64
2021/05/06 07:25:50;;;;;;;656.22;614.05;;;10.20;95.70;;;;;;5114465;28;20404;-63
2021/05/06 07:28:22;;;;;;;646.38;611.17;;;10.40;95.40;;;;;;5113568;28;20831;-63
2021/05/06 07:30:52;;;;;;;693.05;642.80;;;10.80;94.50;;;;;;5114038;28;20405;-63
2021/05/06 07:33:23;;;;;;;658.20;623.53;;;10.70;94.00;;;;;;5078712;28;20395;-63
2021/05/06 07:35:53;;;;;;;656.15;625.38;;;10.20;94.90;;;;;;5114445;28;20465;-64
2021/05/06 07:38:24;;;;;;;656.50;622.95;;;9.60;96.60;;;;;;5114393;28;20902;-64
2021/05/06 07:40:56;;;;;;;547.03;526.25;;;9.50;96.90;;;;;;5095992;28;20453;-65
2021/05/06 07:43:26;;;;;;;460.70;444.20;;;9.30;97.30;;;;;;5113984;28;20495;-63
2021/05/06 07:45:55;;;;;;;487.60;469.33;;;9.40;97.30;;;;;;5114081;28;20835;-62
2021/05/06 07:48:26;;;;;;;490.95;472.88;;;9.20;97.70;;;;;;5114206;28;20759;-63
2021/05/06 07:53:53;;;;;;;275.50;267.00;;;9.40;97.60;;;;;;5096077;28;20439;-64
2021/05/06 07:56:25;;;;;;;488.23;469.98;;;9.40;98.30;;;;;;5114784;28;20418;-63
2021/05/06 07:58:52;;;;;;;275.23;266.60;;;9.10;98.20;;;;;;5114559;28;20431;-64
2021/05/06 08:01:21;;;;;;;552.03;526.42;;;9.10;98.20;;;;;;5115046;28;20412;-64
2021/05/06 08:03:48;;;;;;;546.70;525.65;;;9.20;98.60;;;;;;5114901;28;20404;-64
2021/05/06 08:09:11;;;;;;;346.52;335.13;;;9.70;98.60;;;;;;5115146;28;20802;-63
2021/05/06 08:11:38;;;;;;;709.60;675.78;;;9.80;98.50;;;;;;5099407;28;20497;-63
2021/05/06 08:14:06;;;;;;;639.17;609.97;;;9.50;98.40;;;;;;5098336;28;20404;-64
2021/05/06 08:16:34;;;;;;;437.93;422.23;;;9.00;99.30;;;;;;5115418;28;20400;-64
2021/05/06 08:19:01;;;;;;;294.10;284.85;;;9.30;99.20;;;;;;5114971;28;20415;-64
2021/05/06 08:21:31;;;;;;;280.13;271.30;;;9.80;98.70;;;;;;5114185;28;20776;-64
2021/05/06 08:23:58;;;;;;;513.13;494.35;;;10.00;97.70;;;;;;5098650;28;20416;-66
2021/05/06 08:26:27;;;;;;;165.30;160.48;;;10.00;97.50;;;;;;5098828;28;20970;-64
2021/05/06 08:28:57;;;;;;;324.60;313.92;;;10.20;97.30;;;;;;5098389;28;20489;-64
2021/05/06 08:34:17;;;;;;;124.82;120.97;;;10.40;97.30;;;;;;5097924;28;20411;-64
2021/05/06 08:36:44;;;;;;;396.45;382.52;;;10.50;97.00;;;;;;5097706;28;20915;-63
2021/05/06 08:39:36;;;;;;;124.63;121.13;;;10.80;96.30;;;;;;5119317;28;20404;-63
2021/05/06 08:42:05;;;;;;;67.55;65.55;;;10.60;96.50;;;;;;5124107;28;20463;-63
2021/05/06 08:44:36;;;;;;;224.07;216.50;;;10.00;97.30;;;;;;5122357;28;20396;-65
2021/05/06 08:47:05;;;;;;;41.17;39.83;;;10.00;97.40;;;;;;5123445;28;20408;-64
2021/05/06 08:49:36;;;;;;;27.80;26.80;;;9.80;98.40;;;;;;5117495;28;20407;-62
2021/05/06 08:52:07;;;;;;;294.63;285.33;;;9.80;98.90;;;;;;5117068;28;20424;-64
2021/05/06 08:54:35;;;;;;;7.03;6.53;;;9.70;99.20;;;;;;5125406;28;20421;-63
2021/05/06 08:57:03;;;;;;;4.55;2.70;;;9.30;99.90;;;;;;5107694;28;20408;-63
2021/05/06 08:59:32;;;;;;;9.98;9.20;;;9.50;99.90;;;;;;5108566;28;20419;-65
2021/05/06 09:01:59;;;;;;;87.40;83.60;;;9.30;99.90;;;;;;5087088;28;20417;-63
2021/05/06 09:04:29;;;;;;;2.55;2.35;;;9.40;99.90;;;;;;5104829;28;20723;-64
2021/05/06 09:06:58;;;;;;;3.22;2.67;;;9.20;99.90;;;;;;5105337;28;20416;-65
2021/05/06 09:09:28;;;;;;;5.10;2.53;;;9.20;99.90;;;;;;5104032;28;20444;-64
2021/05/06 09:11:57;;;;;;;4.55;3.08;;;9.30;99.90;;;;;;5098852;28;20414;-64
2021/05/06 09:14:50;;;;;;;3.43;2.70;;;9.20;99.90;;;;;;5095806;28;20422;-63
2021/05/06 09:17:25;;;;;;;23.15;22.00;;;9.20;99.90;;;;;;5095790;28;20417;-65
2021/05/06 09:19:57;;;;;;;8.15;7.55;;;9.10;99.90;;;;;;5079241;28;20434;-65
2021/05/06 09:22:36;;;;;;;187.53;181.83;;;9.00;99.90;;;;;;5062837;28;20444;-63
2021/05/06 09:25:26;;;;;;;8.90;8.50;;;9.10;99.90;;;;;;5097360;28;20410;-63
2021/05/06 09:28:06;;;;;;;20.47;19.73;;;9.00;99.90;;;;;;5077385;28;20410;-65
2021/05/06 09:30:38;;;;;;;17.33;16.70;;;9.00;99.90;;;;;;5097415;28;20402;-63
2021/05/06 09:33:09;;;;;;;13.18;12.27;;;9.00;99.90;;;;;;5079986;28;20426;-64
2021/05/06 09:35:42;;;;;;;8.60;8.18;;;9.10;99.90;;;;;;5097852;28;20410;-63
2021/05/06 09:38:30;;;;;;;5.70;3.58;;;9.20;99.90;;;;;;5098249;28;20846;-63
2021/05/06 09:40:59;;;;;;;8.15;7.65;;;9.00;99.90;;;;;;5097814;28;20497;-64
2021/05/06 09:43:30;;;;;;;307.75;297.50;;;9.20;99.90;;;;;;5097244;28;20404;-64
2021/05/06 09:46:00;;;;;;;52.33;50.77;;;9.50;99.90;;;;;;5095649;28;20485;-63
2021/05/06 09:48:28;;;;;;;13.20;12.60;;;9.50;99.90;;;;;;5096982;28;20440;-62
2021/05/06 09:51:29;;;;;;;6.57;5.97;;;9.50;99.90;;;;;;5096959;28;20414;-63
2021/05/06 09:53:57;;;;;;;4.25;3.95;;;9.70;99.90;;;;;;5096531;28;20493;-65
2021/05/06 09:56:25;;;;;;;12.57;11.98;;;9.90;99.90;;;;;;5097350;28;20978;-64
2021/05/06 09:58:54;;;;;;;3.25;2.90;;;9.70;99.90;;;;;;5097763;28;20449;-63
2021/05/06 10:01:31;;;;;;;12.75;12.05;;;9.70;99.90;;;;;;5096369;28;20445;-66
2021/05/06 10:04:16;;;;;;;5.50;5.10;;;9.80;99.90;;;;;;5097890;28;20408;-64
2021/05/06 10:06:43;;;;;;;2.45;2.15;;;10.00;99.90;;;;;;5097632;28;20488;-64
2021/05/06 10:09:10;;;;;;;7.15;6.65;;;9.80;99.90;;;;;;5080590;28;20414;-64
2021/05/06 10:11:38;;;;;;;4.40;2.40;;;9.50;99.90;;;;;;5084234;28;20871;-64
2021/05/06 10:14:06;;;;;;;3.67;3.33;;;9.40;99.90;;;;;;5103375;28;20749;-64
2021/05/06 10:16:34;;;;;;;3.20;2.55;;;9.60;99.90;;;;;;5102234;28;20433;-64
2021/05/06 10:19:04;;;;;;;2.30;2.10;;;9.70;99.90;;;;;;5104087;28;20437;-63
2021/05/06 10:21:32;;;;;;;3.47;1.65;;;10.00;99.90;;;;;;5103945;28;20437;-64
2021/05/06 10:26:56;;;;;;;4.00;2.17;;;10.20;99.90;;;;;;5108323;28;20406;-65
2021/05/06 10:29:24;;;;;;;2.80;1.80;;;10.00;99.90;;;;;;5109589;28;20436;-64
2021/05/06 10:31:52;;;;;;;3.00;2.03;;;10.30;99.90;;;;;;5108817;28;20406;-64
2021/05/06 10:34:20;;;;;;;185.88;180.38;;;10.50;99.90;;;;;;5067182;28;20407;-67
2021/05/06 10:36:49;;;;;;;3.10;2.60;;;10.60;99.90;;;;;;5104271;28;20478;-64
2021/05/06 10:39:17;;;;;;;3.50;2.50;;;10.40;99.90;;;;;;5106816;28;20444;-64
2021/05/06 10:41:44;;;;;;;2.92;2.20;;;10.00;99.90;;;;;;5098443;28;20406;-64
2021/05/06 10:44:15;;;;;;;4.60;1.80;;;10.10;99.90;;;;;;5078830;28;20908;-65
2021/05/06 10:46:58;;;;;;;2.45;1.95;;;10.10;99.90;;;;;;5095294;28;20414;-64
2021/05/06 10:49:32;;;;;;;3.53;1.83;;;10.10;99.90;;;;;;5096979;28;20439;-64
2021/05/06 10:52:02;;;;;;;4.15;2.55;;;10.00;99.90;;;;;;5078378;28;20735;-64
2021/05/06 10:54:32;;;;;;;1.83;1.70;;;10.20;99.90;;;;;;5096737;28;20584;-63
2021/05/06 10:57:01;;;;;;;4.03;2.50;;;10.20;99.90;;;;;;5078262;28;20567;-64
2021/05/06 10:59:37;;;;;;;5.35;2.63;;;9.60;99.90;;;;;;5096648;28;20413;-63
2021/05/06 11:02:06;;;;;;;1.98;1.88;;;9.50;99.90;;;;;;5095283;28;20398;-64
2021/05/06 11:04:35;;;;;;;2.60;2.00;;;9.90;99.90;;;;;;5096332;28;20410;-63
2021/05/06 11:07:28;;;;;;;3.30;2.00;;;9.90;99.90;;;;;;5095886;28;20770;-64
2021/05/06 11:10:02;;;;;;;2.47;1.83;;;10.00;99.90;;;;;;5077263;28;20410;-65
2021/05/06 11:12:40;;;;;;;339.67;294.27;;;10.00;99.90;;;;;;5096801;28;20194;-63
2021/05/06 11:15:33;;;;;;;301.13;291.08;;;10.00;99.90;;;;;;5095026;28;20418;-64
2021/05/06 11:18:04;;;;;;;430.40;237.30;;;10.10;99.90;;;;;;5095814;28;20222;-64
2021/05/06 11:20:48;;;;;;;614.60;498.50;;;10.10;99.90;;;;;;5094968;28;20493;-64
2021/05/06 11:23:27;;;;;;;607.17;540.77;;;10.10;99.90;;;;;;5095359;28;20464;-64
2021/05/06 11:26:14;;;;;;;650.10;580.10;;;10.20;99.90;;;;;;5093969;28;20444;-64
2021/05/06 11:31:49;;;;;;;666.92;602.83;;;10.00;99.90;;;;;;5075022;28;20412;-64
2021/05/06 11:34:38;;;;;;;652.22;585.65;;;10.20;99.90;;;;;;5094041;28;20430;-64
2021/05/06 11:37:26;;;;;;;671.80;618.13;;;10.30;99.90;;;;;;5094017;28;20410;-67
2021/05/06 11:40:06;;;;;;;663.38;601.58;;;10.30;99.90;;;;;;5094113;28;20488;-64
2021/05/06 11:42:38;;;;;;;680.72;620.53;;;9.80;99.90;;;;;;5059597;28;20504;-64
2021/05/06 11:45:34;;;;;;;680.40;631.47;;;9.60;99.90;;;;;;5094185;28;20402;-64
2021/05/06 11:48:02;;;;;;;328.63;293.50;;;9.80;99.90;;;;;;5075092;28;20207;-64
2021/05/06 11:50:33;;;;;;;285.57;265.63;;;9.80;99.90;;;;;;5074797;28;20953;-63
2021/05/06 11:53:02;;;;;;;206.63;195.20;;;9.80;99.90;;;;;;5074401;28;20495;-68
2021/05/06 11:55:39;;;;;;;248.53;233.33;;;9.80;99.90;;;;;;5075090;28;20479;-65
2021/05/06 11:58:32;;;;;;;132.20;125.77;;;9.50;99.90;;;;;;5056910;28;20510;-69
2021/05/06 12:01:00;;;;;;;109.33;104.10;;;9.60;99.90;;;;;;5058968;28;20476;-63
2021/05/06 12:03:34;;;;;;;22.03;20.93;;;9.50;99.90;;;;;;5075985;28;20440;-63
2021/05/06 12:06:05;;;;;;;20.27;18.93;;;9.20;99.90;;;;;;5076327;28;20415;-64
2021/05/06 12:08:42;;;;;;;245.57;227.73;;;9.40;99.90;;;;;;5075618;28;20433;-64
2021/05/06 12:11:10;;;;;;;47.57;45.80;;;9.50;99.90;;;;;;5075648;28;20411;-64
2021/05/06 12:13:41;;;;;;;110.47;105.37;;;9.70;99.90;;;;;;5074046;28;20407;-63
2021/05/06 12:16:18;;;;;;;57.10;54.97;;;9.60;99.90;;;;;;5082218;28;20434;-64
2021/05/06 12:18:57;;;;;;;227.10;211.77;;;9.60;99.90;;;;;;5095479;28;20473;-64
2021/05/06 12:21:34;;;;;;;11.00;10.33;;;9.60;99.90;;;;;;5095242;28;20433;-63
2021/05/06 12:24:02;;;;;;;5.97;5.67;;;9.50;99.90;;;;;;5095628;28;20825;-64
2021/05/06 12:26:30;;;;;;;23.90;22.73;;;9.70;99.90;;;;;;5095169;28;20490;-64
2021/05/06 12:29:23;;;;;;;72.07;69.33;;;9.60;99.90;;;;;;5094501;28;20418;-64
2021/05/06 12:31:52;;;;;;;101.20;96.87;;;9.80;99.90;;;;;;5080759;28;20487;-64
2021/05/06 12:34:21;;;;;;;13.13;12.33;;;9.80;99.90;;;;;;5075326;28;20911;-64
2021/05/06 12:36:56;;;;;;;41.30;39.83;;;9.60;99.90;;;;;;5074579;28;20456;-64
2021/05/06 12:39:24;;;;;;;285.10;256.27;;;9.60;99.90;;;;;;5056750;28;20519;-64
2021/05/06 12:41:53;;;;;;;260.07;243.97;;;9.60;99.90;;;;;;5057020;28;20421;-64
2021/05/06 12:44:39;;;;;;;25.20;24.27;;;9.60;99.90;;;;;;5075035;28;20539;-67
2021/05/06 12:47:13;;;;;;;3.67;3.50;;;9.50;99.90;;;;;;5087834;28;20447;-64
2021/05/06 12:49:41;;;;;;;16.87;15.73;;;9.60;99.90;;;;;;5095056;28;20462;-63
2021/05/06 12:52:27;;;;;;;4.57;3.20;;;9.30;99.90;;;;;;5076804;28;20997;-65
2021/05/06 12:54:55;;;;;;;4.87;4.37;;;9.40;99.90;;;;;;5094294;28;20410;-64
2021/05/06 12:57:23;;;;;;;15.43;14.60;;;9.50;99.90;;;;;;5094463;28;20472;-64
2021/05/06 12:59:51;;;;;;;6.20;5.63;;;9.40;99.90;;;;;;5094156;28;20433;-65
2021/05/06 13:02:19;;;;;;;6.50;6.10;;;9.50;99.90;;;;;;5076736;28;20450;-66
2021/05/06 13:07:52;;;;;;;287.87;195.23;;;9.20;99.90;;;;;;5078723;28;20404;-63
2021/05/06 13:10:35;;;;;;;246.87;176.97;;;9.40;99.90;;;;;;5060418;28;20502;-66
2021/05/06 13:13:05;;;;;;;349.87;184.00;;;9.20;99.90;;;;;;5077740;28;20471;-65
2021/05/06 13:15:46;;;;;;;551.40;506.38;;;9.20;99.90;;;;;;5078303;28;20895;-64
2021/05/06 13:18:14;;;;;;;668.87;627.90;;;9.40;99.90;;;;;;5097170;28;20509;-64
2021/05/06 13:20:42;;;;;;;315.87;283.77;;;9.50;99.90;;;;;;5098500;28;20444;-66
2021/05/06 13:23:13;;;;;;;330.47;240.13;;;9.60;99.90;;;;;;5101682;28;20452;-63
2021/05/06 13:26:06;;;;;;;634.60;601.75;;;9.50;99.90;;;;;;5080655;28;20429;-63
2021/05/06 13:31:39;;;;;;;285.63;243.67;;;9.50;99.90;;;;;;5089454;28;20487;-64
2021/05/06 13:34:17;;;;;;;284.43;255.13;;;9.50;99.90;;;;;;5077817;28;20433;-64
2021/05/06 13:36:46;;;;;;;216.70;203.60;;;9.70;99.90;;;;;;5077720;28;20539;-63
2021/05/06 13:39:16;;;;;;;152.20;144.87;;;9.80;99.90;;;;;;5077734;28;20443;-62
2021/05/06 13:41:46;;;;;;;226.57;214.27;;;9.80;99.90;;;;;;5077437;28;20494;-63
2021/05/06 13:44:16;;;;;;;179.17;170.33;;;9.80;99.90;;;;;;5077118;28;20415;-66
2021/05/06 13:46:45;;;;;;;157.77;149.37;;;9.70;99.90;;;;;;5086688;28;20496;-63
2021/05/06 13:49:13;;;;;;;109.57;105.37;;;9.60;99.90;;;;;;5097525;28;20433;-63
2021/05/06 13:51:41;;;;;;;116.17;110.97;;;9.70;99.90;;;;;;5079779;28;20531;-64
2021/05/06 13:54:08;;;;;;;109.80;105.20;;;9.60;99.90;;;;;;5097295;28;20424;-64
2021/05/06 13:56:36;;;;;;;18.13;17.23;;;9.80;99.90;;;;;;5097206;28;20428;-64
2021/05/06 13:59:04;;;;;;;2.07;1.60;;;9.70;99.90;;;;;;5097018;28;20968;-65
2021/05/06 14:01:31;;;;;;;5.90;5.60;;;9.60;99.90;;;;;;5086012;28;20477;-64
2021/05/06 14:03:59;;;;;;;97.60;93.63;;;9.80;99.90;;;;;;5059276;28;20408;-63
2021/05/06 14:06:51;;;;;;;12.33;11.80;;;10.00;99.90;;;;;;5077023;28;20422;-64
2021/05/06 14:09:19;;;;;;;3.60;2.10;;;10.00;99.90;;;;;;5076943;28;20448;-64
2021/05/06 14:11:50;;;;;;;7.77;2.40;;;10.00;99.90;;;;;;5077348;28;20463;-65
2021/05/06 14:14:17;;;;;;;14.83;13.80;;;9.80;99.90;;;;;;5076171;28;20440;-63
2021/05/06 14:16:45;;;;;;;220.40;205.23;;;9.60;99.90;;;;;;5071159;28;20821;-63
2021/05/06 14:19:14;;;;;;;160.93;151.77;;;9.80;99.90;;;;;;5097711;28;20533;-64
2021/05/06 14:21:43;;;;;;;10.65;9.95;;;9.50;99.90;;;;;;5078408;28;20415;-64
2021/05/06 14:27:05;;;;;;;249.97;231.30;;;9.90;99.90;;;;;;5097080;28;20467;-63
2021/05/06 14:29:33;;;;;;;280.33;255.53;;;10.20;99.90;;;;;;5078787;28;20906;-63
2021/05/06 14:32:00;;;;;;;239.73;220.27;;;10.20;99.90;;;;;;5081673;28;20462;-63
2021/05/06 14:34:28;;;;;;;233.10;213.47;;;10.00;99.90;;;;;;5076377;28;20768;-66
2021/05/06 14:36:55;;;;;;;227.80;210.27;;;9.80;99.90;;;;;;5076405;28;20438;-64
2021/05/06 14:39:22;;;;;;;233.30;216.30;;;9.90;99.90;;;;;;5076896;28;20832;-63
2021/05/06 14:41:50;;;;;;;177.93;166.50;;;9.80;99.90;;;;;;5077104;28;20430;-65
2021/05/06 14:44:18;;;;;;;62.23;59.67;;;9.90;99.90;;;;;;5076787;28;20428;-64
2021/05/06 14:46:46;;;;;;;41.43;39.57;;;9.50;99.90;;;;;;5086577;28;20447;-63
2021/05/06 14:49:13;;;;;;;18.37;17.53;;;9.40;99.90;;;;;;5096844;28;20418;-63
2021/05/06 14:51:43;;;;;;;14.57;13.53;;;9.30;99.90;;;;;;5078901;28;20459;-63
2021/05/06 14:54:11;;;;;;;21.60;20.23;;;9.30;99.90;;;;;;5096526;28;20509;-63
2021/05/06 14:56:39;;;;;;;8.93;8.20;;;9.20;99.90;;;;;;5097017;28;20384;-65
2021/05/06 14:59:06;;;;;;;7.33;6.67;;;9.20;99.90;;;;;;5097013;28;20524;-62
2021/05/06 15:01:34;;;;;;;4.23;3.10;;;9.00;99.90;;;;;;5067200;28;20540;-62
2021/05/06 15:04:02;;;;;;;6.27;5.63;;;8.80;99.90;;;;;;5078024;28;20408;-64
2021/05/06 15:06:29;;;;;;;5.70;3.80;;;8.70;99.90;;;;;;5084481;28;20510;-63
2021/05/06 15:08:59;;;;;;;68.23;65.10;;;8.60;99.90;;;;;;5089969;28;20444;-64
2021/05/06 15:11:27;;;;;;;103.07;97.33;;;8.50;99.90;;;;;;5077839;28;20417;-64
2021/05/06 15:13:54;;;;;;;174.70;161.77;;;8.50;99.90;;;;;;5077316;28;20422;-64
2021/05/06 15:16:21;;;;;;;200.33;166.43;;;8.50;99.90;;;;;;5067177;28;20557;-64
2021/05/06 15:18:50;;;;;;;233.47;166.70;;;8.50;99.90;;;;;;5096018;28;20499;-64
2021/05/06 15:21:18;;;;;;;248.23;163.63;;;8.40;99.90;;;;;;5096685;28;20447;-63
2021/05/06 15:23:45;;;;;;;264.00;163.10;;;8.40;99.90;;;;;;5078734;28;20931;-64
2021/05/06 15:26:17;;;;;;;291.83;162.27;;;8.40;99.90;;;;;;5094937;28;20798;-65
2021/05/06 15:28:44;;;;;;;424.75;402.67;;;8.30;99.90;;;;;;5095754;28;20500;-64
2021/05/06 15:31:38;;;;;;;263.10;184.83;;;8.30;99.90;;;;;;5086926;28;20578;-63
2021/05/06 15:34:07;;;;;;;463.83;432.10;;;8.30;99.90;;;;;;5079790;28;20396;-64
2021/05/06 15:36:34;;;;;;;542.72;506.05;;;8.30;99.90;;;;;;5079717;28;20418;-65
2021/05/06 15:39:03;;;;;;;555.00;521.40;;;8.20;99.90;;;;;;5081588;28;20416;-63
2021/05/06 15:41:33;;;;;;;266.37;206.50;;;8.20;99.90;;;;;;5088668;28;20440;-63
2021/05/06 15:44:00;;;;;;;168.20;150.97;;;8.20;99.90;;;;;;5085801;28;20433;-63
2021/05/06 15:46:28;;;;;;;135.33;123.70;;;8.20;99.90;;;;;;5092131;28;20465;-64
2021/05/06 15:48:55;;;;;;;143.87;129.50;;;8.20;99.90;;;;;;5104277;28;20447;-68